Randolph, Maine
Current Conditions -  °F | °C
As of 8:53 AM on Tuesday 27 Jan 2015 (Local Time) from KAUG Reporting Station
Heavy Snow Heavy Snow  
Wind Chill: -15°   Ceiling: 300
Heat Index:   Visibility: 0mi
Dew Point:   Wind: 25mph
Humidity: 84%   Direction: 10°N
Pressure: 29.75"   Gusts: 43mph
Location:  44.23°N, 69.75°W
Report Text: KAUG 271353Z AUTO 01022G37KT M1/4SM +SN FZFG VV003 M14/M16 A2975 RMK AO2 PK WND 01039/1332 SLP083 P0001 T11391161
Loading
Personal Weather Stations






























Interactive Weather Map New forecast layout! Learn more

10-Day Weather Forecast

Advertisements
Track Severe Weather on mobile